createdAt,value
2018-05-16T00:01:55.286Z,88.20
2018-05-16T00:04:27.980Z,88.30
2018-05-16T00:07:00.460Z,88.30
2018-05-16T00:09:33.043Z,88.30
2018-05-16T00:12:06.361Z,88.90
2018-05-16T00:14:39.092Z,88.30
2018-05-16T00:17:11.519Z,88.30
2018-05-16T00:19:44.154Z,88.20
2018-05-16T00:22:16.700Z,88.20
2018-05-16T00:24:50.246Z,88.00
2018-05-16T00:27:23.530Z,88.00
2018-05-16T00:29:56.125Z,87.90
2018-05-16T00:32:29.413Z,88.00
2018-05-16T00:35:01.847Z,88.10
2018-05-16T00:37:35.202Z,88.20
2018-05-16T00:40:07.596Z,88.10
2018-05-16T00:42:47.753Z,88.10
2018-05-16T00:45:21.328Z,87.90
2018-05-16T00:47:54.174Z,87.90
2018-05-16T00:50:27.487Z,87.80
2018-05-16T00:53:00.156Z,87.70
2018-05-16T00:55:33.895Z,87.90
2018-05-16T00:58:07.816Z,87.90
2018-05-16T01:00:41.313Z,88.00
2018-05-16T01:03:14.081Z,87.90
2018-05-16T01:05:47.331Z,87.90
2018-05-16T01:08:19.866Z,88.00
2018-05-16T01:10:52.531Z,88.00
2018-05-16T01:13:26.040Z,88.70
2018-05-16T01:16:00.155Z,88.20
2018-05-16T01:18:33.848Z,88.00
2018-05-16T01:21:07.372Z,87.80
2018-05-16T01:23:40.749Z,88.70
2018-05-16T01:26:13.734Z,88.10
2018-05-16T01:28:46.985Z,88.30
2018-05-16T01:31:20.220Z,88.10
2018-05-16T01:33:52.686Z,88.10
2018-05-16T01:36:25.161Z,88.10
2018-05-16T01:38:57.592Z,88.40
2018-05-16T01:41:30.120Z,88.70
2018-05-16T01:44:02.574Z,89.20
2018-05-16T01:46:36.549Z,88.30
2018-05-16T01:49:18.484Z,88.30
2018-05-16T01:51:50.897Z,88.50
2018-05-16T01:54:23.467Z,88.60
2018-05-16T01:56:55.891Z,88.60
2018-05-16T01:59:28.385Z,88.60
2018-05-16T02:02:01.639Z,88.70
2018-05-16T02:04:34.443Z,88.60
2018-05-16T02:07:07.013Z,88.60
2018-05-16T02:09:40.464Z,88.70
2018-05-16T02:12:13.703Z,89.00
2018-05-16T02:14:47.061Z,88.70
2018-05-16T02:17:20.688Z,88.90
2018-05-16T02:19:53.441Z,88.90
2018-05-16T02:22:26.105Z,88.80
2018-05-16T02:24:58.540Z,88.70
2018-05-16T02:27:31.006Z,88.80
2018-05-16T02:30:04.379Z,88.80
2018-05-16T02:32:37.808Z,88.80
2018-05-16T02:35:10.439Z,88.50
2018-05-16T02:37:42.925Z,88.50
2018-05-16T02:40:16.131Z,88.80
2018-05-16T02:42:48.833Z,88.70
2018-05-16T02:45:22.085Z,88.60
2018-05-16T02:47:55.664Z,88.50
2018-05-16T02:50:28.244Z,88.50
2018-05-16T02:53:00.771Z,88.50
2018-05-16T02:55:33.097Z,88.60
2018-05-16T02:58:05.599Z,88.60
2018-05-16T03:00:39.632Z,88.30
2018-05-16T03:03:12.304Z,88.40
2018-05-16T03:05:44.701Z,88.20
2018-05-16T03:08:17.353Z,88.50
2018-05-16T03:10:50.536Z,88.60
2018-05-16T03:13:22.925Z,88.40
2018-05-16T03:15:55.442Z,88.30
2018-05-16T03:18:27.902Z,87.90
2018-05-16T03:21:01.080Z,88.00
2018-05-16T03:23:33.808Z,87.90
2018-05-16T03:26:07.142Z,87.80
2018-05-16T03:28:40.597Z,88.00
2018-05-16T03:31:13.495Z,87.90
2018-05-16T03:33:46.777Z,87.90
2018-05-16T03:36:19.670Z,88.00
2018-05-16T03:38:52.993Z,88.40
2018-05-16T03:41:25.649Z,88.30
2018-05-16T03:43:58.341Z,88.50
2018-05-16T03:46:32.279Z,88.50
2018-05-16T03:49:05.297Z,88.40
2018-05-16T03:51:37.711Z,88.50
2018-05-16T03:54:10.467Z,88.50
2018-05-16T03:56:43.771Z,89.00
2018-05-16T03:59:35.194Z,88.50
2018-05-16T04:05:19.307Z,88.90
2018-05-16T04:07:52.698Z,89.20
2018-05-16T04:10:26.230Z,88.70
2018-05-16T04:12:58.770Z,88.70
2018-05-16T04:15:32.022Z,88.50
2018-05-16T04:18:04.561Z,88.50
2018-05-16T04:20:37.181Z,88.50
2018-05-16T04:23:10.239Z,88.50
2018-05-16T04:25:42.957Z,88.50
2018-05-16T04:28:15.518Z,88.40
2018-05-16T04:30:48.932Z,88.20
2018-05-16T04:33:21.639Z,88.20
2018-05-16T04:35:54.171Z,88.20
2018-05-16T04:38:27.326Z,88.30
2018-05-16T04:41:00.789Z,88.70
2018-05-16T04:43:33.138Z,88.30
2018-05-16T04:46:05.930Z,88.30
2018-05-16T04:48:39.808Z,88.30
2018-05-16T04:51:13.099Z,88.40
2018-05-16T04:53:47.361Z,88.40
2018-05-16T04:56:19.730Z,88.40
2018-05-16T04:58:53.723Z,88.40
2018-05-16T05:01:27.532Z,88.40
2018-05-16T05:04:00.363Z,88.40
2018-05-16T05:06:34.026Z,88.50
2018-05-16T05:09:07.234Z,88.20
2018-05-16T05:11:40.518Z,87.90
2018-05-16T05:14:13.661Z,87.80
2018-05-16T05:16:46.658Z,87.70
2018-05-16T05:19:20.822Z,88.00
2018-05-16T05:21:53.737Z,88.10
2018-05-16T05:24:26.303Z,88.00
2018-05-16T05:26:58.921Z,87.80
2018-05-16T05:29:31.305Z,87.60
2018-05-16T05:32:04.073Z,87.50
2018-05-16T05:34:37.457Z,87.80
2018-05-16T05:37:11.061Z,87.90
2018-05-16T05:39:43.711Z,87.90
2018-05-16T05:42:17.095Z,87.80
2018-05-16T05:44:49.896Z,87.80
2018-05-16T05:47:22.415Z,88.90
2018-05-16T05:49:54.944Z,88.20
2018-05-16T05:52:27.564Z,88.30
2018-05-16T05:55:00.250Z,88.20
2018-05-16T05:57:33.574Z,88.10
2018-05-16T06:00:06.326Z,88.00
2018-05-16T06:02:38.785Z,87.90
2018-05-16T06:05:11.257Z,87.70
2018-05-16T06:07:43.992Z,87.40
2018-05-16T06:10:17.138Z,87.20
2018-05-16T06:12:50.160Z,87.20
2018-05-16T06:15:22.468Z,87.00
2018-05-16T06:17:55.820Z,87.20
2018-05-16T06:20:28.990Z,87.20
2018-05-16T06:23:02.926Z,87.00
2018-05-16T06:25:36.478Z,87.60
2018-05-16T06:28:09.311Z,87.00
2018-05-16T06:30:41.731Z,87.00
2018-05-16T06:33:14.520Z,86.90
2018-05-16T06:35:46.982Z,86.60
2018-05-16T06:38:20.125Z,86.30
2018-05-16T06:40:52.762Z,86.20
2018-05-16T06:43:26.049Z,85.80
2018-05-16T06:45:59.546Z,85.80
2018-05-16T06:48:32.249Z,85.80
2018-05-16T06:51:04.693Z,85.90
2018-05-16T06:53:37.224Z,86.20
2018-05-16T06:56:10.453Z,86.40
2018-05-16T06:58:43.977Z,86.40
2018-05-16T07:01:16.946Z,86.40
2018-05-16T07:03:49.350Z,86.70
2018-05-16T07:06:22.574Z,87.30
2018-05-16T07:08:55.465Z,86.70
2018-05-16T07:11:28.701Z,86.70
2018-05-16T07:14:01.527Z,86.70
2018-05-16T07:16:34.024Z,86.80
2018-05-16T07:19:06.525Z,87.10
2018-05-16T07:21:39.149Z,87.10
2018-05-16T07:24:11.852Z,87.20
2018-05-16T07:26:44.494Z,87.40
2018-05-16T07:29:17.006Z,87.30
2018-05-16T07:31:49.602Z,87.20
2018-05-16T07:34:22.913Z,88.10
2018-05-16T07:36:55.740Z,87.40
2018-05-16T07:39:28.998Z,87.20
2018-05-16T07:42:08.783Z,87.00
2018-05-16T07:44:42.356Z,86.50
2018-05-16T07:47:14.903Z,86.50
2018-05-16T07:49:48.201Z,86.90
2018-05-16T07:52:21.042Z,86.40
2018-05-16T07:54:53.664Z,86.60
2018-05-16T07:57:26.203Z,86.40
2018-05-16T07:59:59.576Z,86.40
2018-05-16T08:02:32.257Z,86.40
2018-05-16T08:05:04.831Z,87.00
2018-05-16T08:07:37.410Z,86.80
2018-05-16T08:10:10.195Z,86.70
2018-05-16T08:12:42.680Z,86.70
2018-05-16T08:15:23.063Z,86.80
2018-05-16T08:17:56.470Z,87.00
2018-05-16T08:20:29.272Z,86.90
2018-05-16T08:23:02.011Z,86.80
2018-05-16T08:25:35.280Z,87.00
2018-05-16T08:28:08.029Z,87.00
2018-05-16T08:30:40.738Z,86.80
2018-05-16T08:33:13.317Z,86.60
2018-05-16T08:35:47.717Z,86.70
2018-05-16T08:38:20.530Z,86.30
2018-05-16T08:40:53.924Z,86.50
2018-05-16T08:43:26.401Z,86.60
2018-05-16T08:45:59.763Z,86.70
2018-05-16T08:48:32.625Z,86.80
2018-05-16T08:51:05.164Z,86.80
2018-05-16T08:53:37.651Z,87.00
2018-05-16T08:56:10.361Z,87.20
2018-05-16T08:58:42.725Z,87.00
2018-05-16T09:01:16.025Z,87.30
2018-05-16T09:03:48.758Z,87.30
2018-05-16T09:06:28.573Z,87.30
2018-05-16T09:09:01.912Z,87.50
2018-05-16T09:11:34.306Z,87.10
2018-05-16T09:14:06.715Z,86.90
2018-05-16T09:16:39.097Z,87.00
2018-05-16T09:19:11.571Z,87.30
2018-05-16T09:21:44.000Z,87.40
2018-05-16T09:24:16.487Z,86.90
2018-05-16T09:26:49.090Z,86.90
2018-05-16T09:29:22.471Z,86.80
2018-05-16T09:31:55.805Z,86.70
2018-05-16T09:34:29.301Z,87.40
2018-05-16T09:37:02.051Z,86.80
2018-05-16T09:39:34.353Z,86.30
2018-05-16T09:42:06.906Z,86.30
2018-05-16T09:44:39.342Z,86.30
2018-05-16T09:47:12.650Z,86.30
2018-05-16T09:49:46.048Z,87.10
2018-05-16T09:52:18.859Z,86.70
2018-05-16T09:54:52.884Z,86.30
2018-05-16T09:57:25.994Z,86.30
2018-05-16T09:59:58.540Z,86.00
2018-05-16T10:02:31.400Z,85.80
2018-05-16T10:05:03.738Z,85.80
2018-05-16T10:07:36.387Z,85.60
2018-05-16T10:10:08.941Z,85.90
2018-05-16T10:12:42.166Z,85.70
2018-05-16T10:15:14.802Z,85.70
2018-05-16T10:17:47.949Z,85.50
2018-05-16T10:20:21.480Z,86.10
2018-05-16T10:22:54.749Z,86.10
2018-05-16T10:25:27.398Z,86.00
2018-05-16T10:27:59.911Z,86.00
2018-05-16T10:30:32.391Z,85.80
2018-05-16T10:33:04.861Z,85.60
2018-05-16T10:35:38.012Z,84.70
2018-05-16T10:38:10.690Z,84.70
2018-05-16T10:40:43.148Z,84.50
2018-05-16T10:43:16.478Z,85.00
2018-05-16T10:45:49.389Z,85.00
2018-05-16T10:48:21.955Z,84.70
2018-05-16T10:50:54.528Z,84.60
2018-05-16T10:53:27.051Z,84.60
2018-05-16T10:55:59.621Z,84.90
2018-05-16T10:58:32.856Z,84.70
2018-05-16T11:01:05.285Z,84.30
2018-05-16T11:03:38.541Z,84.60
2018-05-16T11:06:11.017Z,84.40
2018-05-16T11:08:43.510Z,84.60
2018-05-16T11:11:16.220Z,85.30
2018-05-16T11:13:48.708Z,84.50
2018-05-16T11:16:21.948Z,84.20
2018-05-16T11:18:55.591Z,83.20
2018-05-16T11:21:28.807Z,83.20
2018-05-16T11:24:01.434Z,82.40
2018-05-16T11:26:33.941Z,82.40
2018-05-16T11:29:07.285Z,82.50
2018-05-16T11:31:41.571Z,82.00
2018-05-16T11:34:14.372Z,82.50
2018-05-16T11:36:46.982Z,82.80
2018-05-16T11:39:19.592Z,83.20
2018-05-16T11:41:51.979Z,83.40
2018-05-16T11:44:24.376Z,83.70
2018-05-16T11:46:56.777Z,84.10
2018-05-16T11:49:30.008Z,83.70
2018-05-16T11:52:03.844Z,83.70
2018-05-16T11:54:37.412Z,83.60
2018-05-16T11:57:10.190Z,83.60
2018-05-16T11:59:43.390Z,84.00
2018-05-16T12:02:15.849Z,83.20
2018-05-16T12:04:49.073Z,83.70
2018-05-16T12:07:21.834Z,83.60
2018-05-16T12:09:54.349Z,83.10
2018-05-16T12:12:26.757Z,82.80
2018-05-16T12:14:59.366Z,82.70
2018-05-16T12:17:31.810Z,82.10
2018-05-16T12:20:04.535Z,82.20
2018-05-16T12:22:36.971Z,82.00
2018-05-16T12:25:09.520Z,82.30
2018-05-16T12:27:42.129Z,82.20
2018-05-16T12:30:14.978Z,81.80
2018-05-16T12:32:48.267Z,82.10
2018-05-16T12:35:21.264Z,81.90
2018-05-16T12:37:54.479Z,82.10
2018-05-16T12:40:27.532Z,82.40
2018-05-16T12:43:15.692Z,82.70
2018-05-16T12:45:49.113Z,82.60
2018-05-16T12:48:21.924Z,82.50
2018-05-16T12:50:55.177Z,82.60
2018-05-16T12:53:27.649Z,82.50
2018-05-16T12:56:00.317Z,82.10
2018-05-16T12:58:32.825Z,82.50
2018-05-16T13:01:05.275Z,82.20
2018-05-16T13:03:37.829Z,82.00
2018-05-16T13:06:11.014Z,82.00
2018-05-16T13:08:43.848Z,82.00
2018-05-16T13:11:17.110Z,81.90
2018-05-16T13:13:49.833Z,81.90
2018-05-16T13:16:22.537Z,81.60
2018-05-16T13:18:55.725Z,82.80
2018-05-16T13:21:29.444Z,83.60
2018-05-16T13:24:02.107Z,83.60
2018-05-16T13:26:34.683Z,82.90
2018-05-16T13:29:07.969Z,81.80
2018-05-16T13:31:41.909Z,81.90
2018-05-16T13:34:15.001Z,81.70
2018-05-16T13:36:47.425Z,81.00
2018-05-16T13:39:20.003Z,81.00
2018-05-16T13:41:53.372Z,80.90
2018-05-16T13:44:25.770Z,81.00
2018-05-16T13:46:58.662Z,81.80
2018-05-16T13:49:32.376Z,83.00
2018-05-16T13:52:06.308Z,82.30
2018-05-16T13:54:39.569Z,82.70
2018-05-16T13:57:12.667Z,82.70
2018-05-16T13:59:45.874Z,82.50
2018-05-16T14:02:18.610Z,82.50
2018-05-16T14:04:51.163Z,82.60
2018-05-16T14:07:24.167Z,82.50
2018-05-16T14:09:56.537Z,82.20
2018-05-16T14:12:29.049Z,82.20
2018-05-16T14:15:02.440Z,82.10
2018-05-16T14:17:35.028Z,82.20
2018-05-16T14:20:07.674Z,82.10
2018-05-16T14:22:40.160Z,82.50
2018-05-16T14:25:12.660Z,82.70
2018-05-16T14:27:45.916Z,83.10
2018-05-16T14:30:18.586Z,83.00
2018-05-16T14:32:51.043Z,82.80
2018-05-16T14:35:24.369Z,83.10
2018-05-16T14:37:56.982Z,83.10
2018-05-16T14:40:29.549Z,83.60
2018-05-16T14:43:02.097Z,83.50
2018-05-16T14:45:35.031Z,83.70
2018-05-16T14:48:08.283Z,84.00
2018-05-16T14:50:41.025Z,84.00
2018-05-16T14:53:13.692Z,84.40
2018-05-16T14:55:46.757Z,84.00
2018-05-16T14:58:19.254Z,83.90
2018-05-16T15:00:52.875Z,84.40
2018-05-16T15:03:26.030Z,84.30
2018-05-16T15:05:58.952Z,85.00
2018-05-16T15:08:31.681Z,85.50
2018-05-16T15:11:04.182Z,86.20
2018-05-16T15:13:36.691Z,86.50
2018-05-16T15:16:09.245Z,86.60
2018-05-16T15:18:41.694Z,86.60
2018-05-16T15:21:14.476Z,86.50
2018-05-16T15:23:46.998Z,86.20
2018-05-16T15:26:20.290Z,86.10
2018-05-16T15:28:52.724Z,84.50
2018-05-16T15:31:25.203Z,83.90
2018-05-16T15:33:57.795Z,83.90
2018-05-16T15:36:30.348Z,83.20
2018-05-16T15:39:04.610Z,83.90
2018-05-16T15:41:37.391Z,83.90
2018-05-16T15:44:10.810Z,84.00
2018-05-16T15:46:44.307Z,83.50
2018-05-16T15:49:17.040Z,83.50
2018-05-16T15:51:50.294Z,83.50
2018-05-16T15:54:24.988Z,82.90
2018-05-16T15:56:58.729Z,82.90
2018-05-16T15:59:31.454Z,84.40
2018-05-16T16:02:04.103Z,83.60
2018-05-16T16:04:36.541Z,84.10
2018-05-16T16:07:10.594Z,84.90
2018-05-16T16:09:42.954Z,84.90
2018-05-16T16:12:15.620Z,84.90
2018-05-16T16:14:49.026Z,84.50
2018-05-16T16:17:22.154Z,84.20
2018-05-16T16:19:54.627Z,84.20
2018-05-16T16:22:27.170Z,84.80
2018-05-16T16:24:59.645Z,84.60
2018-05-16T16:27:33.057Z,84.80
2018-05-16T16:30:06.494Z,84.60
2018-05-16T16:32:39.215Z,84.70
2018-05-16T16:35:11.715Z,83.60
2018-05-16T16:37:45.014Z,83.30
2018-05-16T16:40:19.558Z,83.40
2018-05-16T16:42:53.474Z,83.20
2018-05-16T16:45:26.873Z,83.20
2018-05-16T16:47:59.317Z,83.20
2018-05-16T16:50:31.982Z,83.60
2018-05-16T16:53:05.197Z,83.90
2018-05-16T16:55:38.021Z,83.80
2018-05-16T16:58:10.500Z,84.00
2018-05-16T17:00:43.059Z,84.10
2018-05-16T17:03:15.649Z,84.60
2018-05-16T17:05:48.235Z,84.50
2018-05-16T17:08:21.484Z,84.80
2018-05-16T17:10:55.053Z,85.00
2018-05-16T17:13:28.050Z,84.90
2018-05-16T17:16:01.477Z,85.60
2018-05-16T17:18:35.354Z,85.90
2018-05-16T17:21:08.309Z,85.80
2018-05-16T17:23:42.277Z,86.10
2018-05-16T17:26:15.683Z,86.10
2018-05-16T17:28:55.187Z,86.30
2018-05-16T17:31:28.263Z,86.50
2018-05-16T17:34:01.459Z,86.70
2018-05-16T17:36:34.152Z,86.70
2018-05-16T17:39:06.702Z,86.80
2018-05-16T17:41:39.306Z,86.90
2018-05-16T17:44:12.662Z,86.90
2018-05-16T17:46:45.218Z,87.00
2018-05-16T17:49:19.267Z,87.10
2018-05-16T17:51:52.821Z,87.20
2018-05-16T17:54:26.207Z,87.30
2018-05-16T17:56:58.946Z,87.30
2018-05-16T17:59:32.180Z,87.60
2018-05-16T18:02:04.940Z,87.60
2018-05-16T18:04:38.281Z,87.70
2018-05-16T18:07:11.083Z,87.70
2018-05-16T18:09:43.662Z,87.60
2018-05-16T18:12:16.158Z,87.50
2018-05-16T18:17:55.044Z,87.40
2018-05-16T18:20:29.132Z,87.40
2018-05-16T18:23:02.088Z,87.40
2018-05-16T18:25:35.921Z,87.50
2018-05-16T18:28:09.279Z,87.50
2018-05-16T18:30:43.970Z,87.70
2018-05-16T18:33:18.175Z,87.70
2018-05-16T18:35:53.642Z,87.70
2018-05-16T18:38:29.361Z,87.70
2018-05-16T18:41:03.690Z,87.70
2018-05-16T18:43:38.936Z,87.90
2018-05-16T18:46:12.707Z,87.90
2018-05-16T18:48:46.959Z,87.80
2018-05-16T18:51:20.515Z,87.80
2018-05-16T18:53:54.480Z,87.80
2018-05-16T18:56:29.548Z,88.50
2018-05-16T18:59:03.822Z,87.70
2018-05-16T19:01:37.747Z,87.80
2018-05-16T19:04:12.338Z,87.90
2018-05-16T19:06:46.307Z,87.90
2018-05-16T19:09:20.393Z,87.90
2018-05-16T19:11:55.422Z,88.30
2018-05-16T19:14:29.954Z,88.20
2018-05-16T19:17:04.380Z,88.30
2018-05-16T19:19:38.865Z,88.30
2018-05-16T19:22:13.637Z,88.40
2018-05-16T19:24:48.245Z,88.30
2018-05-16T19:27:23.011Z,88.60
2018-05-16T19:29:58.462Z,88.70
2018-05-16T19:32:33.239Z,88.70
2018-05-16T19:35:08.000Z,88.70
2018-05-16T19:37:42.261Z,88.80
2018-05-16T19:40:17.637Z,88.90
2018-05-16T19:42:52.214Z,88.80
2018-05-16T19:45:26.837Z,88.80
2018-05-16T19:48:01.136Z,88.90
2018-05-16T19:50:36.375Z,88.80
2018-05-16T19:53:10.997Z,88.80
2018-05-16T19:55:45.469Z,88.80
2018-05-16T19:58:19.932Z,88.80
2018-05-16T20:00:54.288Z,88.80
2018-05-16T20:03:29.540Z,88.80
2018-05-16T20:06:04.472Z,88.80
2018-05-16T20:08:38.847Z,88.80
2018-05-16T20:11:14.200Z,88.80
2018-05-16T20:13:48.825Z,88.80
2018-05-16T20:16:23.353Z,88.90
2018-05-16T20:18:57.964Z,88.90
2018-05-16T20:21:32.512Z,88.80
2018-05-16T20:24:06.902Z,88.90
2018-05-16T20:26:41.487Z,89.30
2018-05-16T20:29:15.749Z,89.30
2018-05-16T20:31:49.904Z,90.00
2018-05-16T20:34:24.326Z,89.20
2018-05-16T20:36:58.826Z,89.60
2018-05-16T20:39:33.021Z,89.60
2018-05-16T20:42:06.341Z,89.60
2018-05-16T20:44:39.376Z,89.70
2018-05-16T20:47:12.960Z,90.00
2018-05-16T20:49:45.893Z,89.70
2018-05-16T20:52:18.405Z,89.80
2018-05-16T20:54:50.817Z,89.70
2018-05-16T20:57:23.366Z,89.70
2018-05-16T20:59:55.764Z,89.90
2018-05-16T21:02:28.306Z,89.80
2018-05-16T21:05:00.749Z,89.70
2018-05-16T21:07:33.333Z,89.90
2018-05-16T21:10:06.541Z,89.90
2018-05-16T21:12:39.217Z,89.90
2018-05-16T21:15:11.650Z,90.00
2018-05-16T21:17:45.167Z,89.90
2018-05-16T21:20:18.584Z,90.10
2018-05-16T21:22:51.269Z,89.70
2018-05-16T21:25:24.141Z,89.70
2018-05-16T21:27:56.574Z,89.60
2018-05-16T21:30:29.003Z,89.70
2018-05-16T21:33:01.466Z,89.90
2018-05-16T21:35:34.653Z,89.70
2018-05-16T21:38:07.470Z,89.70
2018-05-16T21:40:40.062Z,89.70
2018-05-16T21:43:12.521Z,89.60
2018-05-16T21:45:45.709Z,89.70
2018-05-16T21:48:19.313Z,89.70
2018-05-16T21:50:52.888Z,89.80
2018-05-16T21:53:25.785Z,89.80
2018-05-16T21:55:58.577Z,89.90
2018-05-16T21:58:30.981Z,89.70
2018-05-16T22:01:03.452Z,89.60
2018-05-16T22:03:35.973Z,89.60
2018-05-16T22:06:08.525Z,89.50
2018-05-16T22:08:40.865Z,89.40
2018-05-16T22:11:14.057Z,89.80
2018-05-16T22:13:46.823Z,89.40
2018-05-16T22:16:20.858Z,89.50
2018-05-16T22:18:54.537Z,89.50
2018-05-16T22:21:27.292Z,89.50
2018-05-16T22:23:59.782Z,89.50
2018-05-16T22:26:32.259Z,89.60
2018-05-16T22:29:04.771Z,89.60
2018-05-16T22:31:43.443Z,89.60
2018-05-16T22:34:22.621Z,89.50
2018-05-16T22:37:02.049Z,89.50
2018-05-16T22:39:40.974Z,89.40
2018-05-16T22:42:19.667Z,89.40
2018-05-16T22:44:58.954Z,89.40
2018-05-16T22:47:31.666Z,89.40
2018-05-16T22:50:04.337Z,89.50
2018-05-16T22:52:36.821Z,89.60
2018-05-16T22:55:09.378Z,89.70
2018-05-16T22:57:41.918Z,89.80
2018-05-16T23:00:21.144Z,89.90
2018-05-16T23:02:53.906Z,90.00
2018-05-16T23:05:26.386Z,90.00
2018-05-16T23:07:58.947Z,89.90
2018-05-16T23:10:31.513Z,90.00
2018-05-16T23:13:03.920Z,89.90
2018-05-16T23:15:36.383Z,89.90
2018-05-16T23:18:08.898Z,89.80
2018-05-16T23:20:41.471Z,89.70
2018-05-16T23:23:13.932Z,89.60
2018-05-16T23:25:46.499Z,89.40
2018-05-16T23:28:19.053Z,89.40
2018-05-16T23:30:51.440Z,89.40
2018-05-16T23:33:23.817Z,89.40
2018-05-16T23:35:57.077Z,89.30
2018-05-16T23:38:29.946Z,89.20
2018-05-16T23:41:02.435Z,89.20
2018-05-16T23:43:34.901Z,89.20
2018-05-16T23:46:07.785Z,89.20
2018-05-16T23:48:40.229Z,89.10
2018-05-16T23:51:12.829Z,89.20
2018-05-16T23:53:46.029Z,89.20
2018-05-16T23:56:19.630Z,88.60
2018-05-16T23:58:52.294Z,89.10
